sensor_id;sensor_type;location;lat;lon;timestamp;pressure;altitude;pressure_sealevel;temperature;humidity
13732;BME280;6937;56.096;12.664;2022-11-23T00:01:21;100656.25;;;3.49;100.00
13732;BME280;6937;56.096;12.664;2022-11-23T00:03:49;100647.53;;;3.47;100.00
13732;BME280;6937;56.096;12.664;2022-11-23T00:06:15;100655.59;;;3.44;100.00
13732;BME280;6937;56.096;12.664;2022-11-23T00:08:41;100667.94;;;3.43;100.00
13732;BME280;6937;56.096;12.664;2022-11-23T00:11:07;100679.28;;;3.45;100.00
13732;BME280;6937;56.096;12.664;2022-11-23T00:13:32;100667.63;;;3.30;100.00
13732;BME280;6937;56.096;12.664;2022-11-23T00:16:00;100707.38;;;3.48;100.00
13732;BME280;6937;56.096;12.664;2022-11-23T00:18:28;100709.34;;;3.42;100.00
13732;BME280;6937;56.096;12.664;2022-11-23T00:20:54;100726.97;;;3.42;100.00
13732;BME280;6937;56.096;12.664;2022-11-23T00:23:19;100707.22;;;3.30;100.00
13732;BME280;6937;56.096;12.664;2022-11-23T00:25:44;100719.66;;;3.28;100.00
13732;BME280;6937;56.096;12.664;2022-11-23T00:28:11;100749.13;;;3.39;100.00
13732;BME280;6937;56.096;12.664;2022-11-23T00:30:36;100769.91;;;3.47;100.00
13732;BME280;6937;56.096;12.664;2022-11-23T00:33:01;100781.34;;;3.48;100.00
13732;BME280;6937;56.096;12.664;2022-11-23T00:35:27;100788.41;;;3.47;100.00
13732;BME280;6937;56.096;12.664;2022-11-23T00:37:52;100788.47;;;3.46;100.00
13732;BME280;6937;56.096;12.664;2022-11-23T00:40:17;100781.81;;;3.37;100.00
13732;BME280;6937;56.096;12.664;2022-11-23T00:42:43;100798.97;;;3.47;100.00
13732;BME280;6937;56.096;12.664;2022-11-23T00:45:09;100788.06;;;3.34;100.00
13732;BME280;6937;56.096;12.664;2022-11-23T00:47:34;100796.38;;;3.46;100.00
13732;BME280;6937;56.096;12.664;2022-11-23T00:49:59;100788.59;;;3.42;100.00
13732;BME280;6937;56.096;12.664;2022-11-23T00:52:25;100774.06;;;3.32;100.00
13732;BME280;6937;56.096;12.664;2022-11-23T00:54:50;100815.09;;;3.41;100.00
13732;BME280;6937;56.096;12.664;2022-11-23T00:57:15;100853.59;;;3.47;100.00
13732;BME280;6937;56.096;12.664;2022-11-23T00:59:41;100861.88;;;3.37;100.00
13732;BME280;6937;56.096;12.664;2022-11-23T01:02:06;100864.78;;;3.31;100.00
13732;BME280;6937;56.096;12.664;2022-11-23T01:04:32;100891.75;;;3.39;100.00
13732;BME280;6937;56.096;12.664;2022-11-23T01:06:57;100923.00;;;3.50;100.00
13732;BME280;6937;56.096;12.664;2022-11-23T01:09:22;100930.88;;;3.52;100.00
13732;BME280;6937;56.096;12.664;2022-11-23T01:11:53;100920.75;;;3.41;100.00
13732;BME280;6937;56.096;12.664;2022-11-23T01:14:19;100968.66;;;3.54;100.00
13732;BME280;6937;56.096;12.664;2022-11-23T01:16:45;100973.03;;;3.55;100.00
13732;BME280;6937;56.096;12.664;2022-11-23T01:19:14;100996.69;;;3.58;100.00
13732;BME280;6937;56.096;12.664;2022-11-23T01:21:40;100988.03;;;3.54;100.00
13732;BME280;6937;56.096;12.664;2022-11-23T01:24:17;100980.97;;;3.55;100.00
13732;BME280;6937;56.096;12.664;2022-11-23T01:26:43;101003.56;;;3.62;100.00
13732;BME280;6937;56.096;12.664;2022-11-23T01:29:09;101015.88;;;3.63;100.00
13732;BME280;6937;56.096;12.664;2022-11-23T01:31:36;101025.47;;;3.65;100.00
13732;BME280;6937;56.096;12.664;2022-11-23T01:34:02;101021.22;;;3.61;100.00
13732;BME280;6937;56.096;12.664;2022-11-23T01:36:30;101038.50;;;3.70;100.00
13732;BME280;6937;56.096;12.664;2022-11-23T01:38:56;101046.34;;;3.71;100.00
13732;BME280;6937;56.096;12.664;2022-11-23T01:41:28;101044.53;;;3.73;100.00
13732;BME280;6937;56.096;12.664;2022-11-23T01:43:54;101047.28;;;3.70;100.00
13732;BME280;6937;56.096;12.664;2022-11-23T01:46:19;101073.47;;;3.76;100.00
13732;BME280;6937;56.096;12.664;2022-11-23T01:48:49;101074.34;;;3.77;100.00
13732;BME280;6937;56.096;12.664;2022-11-23T01:51:21;101078.63;;;3.79;100.00
13732;BME280;6937;56.096;12.664;2022-11-23T01:53:48;101056.38;;;3.63;100.00
13732;BME280;6937;56.096;12.664;2022-11-23T01:56:19;101076.13;;;3.76;100.00
13732;BME280;6937;56.096;12.664;2022-11-23T01:58:51;101076.38;;;3.70;100.00
13732;BME280;6937;56.096;12.664;2022-11-23T02:01:18;101092.66;;;3.81;100.00
13732;BME280;6937;56.096;12.664;2022-11-23T02:03:46;101073.53;;;3.75;100.00
13732;BME280;6937;56.096;12.664;2022-11-23T02:06:19;101084.91;;;3.77;100.00
13732;BME280;6937;56.096;12.664;2022-11-23T02:08:46;101089.16;;;3.81;100.00
13732;BME280;6937;56.096;12.664;2022-11-23T02:11:13;101077.16;;;3.72;100.00
13732;BME280;6937;56.096;12.664;2022-11-23T02:13:40;101091.72;;;3.82;100.00
13732;BME280;6937;56.096;12.664;2022-11-23T02:16:07;101104.03;;;3.83;100.00
13732;BME280;6937;56.096;12.664;2022-11-23T02:18:34;101097.00;;;3.82;100.00
13732;BME280;6937;56.096;12.664;2022-11-23T02:21:02;101108.41;;;3.84;100.00
13732;BME280;6937;56.096;12.664;2022-11-23T02:23:33;101096.38;;;3.76;100.00
13732;BME280;6937;56.096;12.664;2022-11-23T02:26:07;101108.22;;;3.89;100.00
13732;BME280;6937;56.096;12.664;2022-11-23T02:29:02;101109.09;;;3.89;100.00
13732;BME280;6937;56.096;12.664;2022-11-23T02:31:29;101102.94;;;3.89;100.00
13732;BME280;6937;56.096;12.664;2022-11-23T02:33:54;101102.94;;;3.89;100.00
13732;BME280;6937;56.096;12.664;2022-11-23T02:36:50;101097.78;;;3.86;100.00
13732;BME280;6937;56.096;12.664;2022-11-23T02:39:36;101109.13;;;3.88;100.00
13732;BME280;6937;56.096;12.664;2022-11-23T02:42:03;101110.03;;;3.87;100.00
13732;BME280;6937;56.096;12.664;2022-11-23T02:44:52;101115.22;;;3.90;100.00
13732;BME280;6937;56.096;12.664;2022-11-23T02:47:21;101112.56;;;3.90;100.00
13732;BME280;6937;56.096;12.664;2022-11-23T02:49:47;101103.28;;;3.80;100.00
13732;BME280;6937;56.096;12.664;2022-11-23T02:52:14;101104.28;;;3.77;100.00
13732;BME280;6937;56.096;12.664;2022-11-23T02:54:39;101129.50;;;3.86;100.00
13732;BME280;6937;56.096;12.664;2022-11-23T02:57:05;101134.66;;;3.89;100.00
13732;BME280;6937;56.096;12.664;2022-11-23T02:59:31;101151.31;;;3.91;100.00
13732;BME280;6937;56.096;12.664;2022-11-23T03:01:58;101144.66;;;3.81;100.00
13732;BME280;6937;56.096;12.664;2022-11-23T03:04:23;101158.59;;;3.86;100.00
13732;BME280;6937;56.096;12.664;2022-11-23T03:06:49;101180.19;;;3.97;100.00
13732;BME280;6937;56.096;12.664;2022-11-23T03:09:14;101170.94;;;3.85;100.00
13732;BME280;6937;56.096;12.664;2022-11-23T03:11:39;101197.69;;;4.00;100.00
13732;BME280;6937;56.096;12.664;2022-11-23T03:14:05;101204.72;;;4.01;100.00
13732;BME280;6937;56.096;12.664;2022-11-23T03:16:30;101198.50;;;4.02;100.00
13732;BME280;6937;56.096;12.664;2022-11-23T03:18:57;101211.53;;;4.06;100.00
13732;BME280;6937;56.096;12.664;2022-11-23T03:21:22;101216.72;;;4.09;100.00
13732;BME280;6937;56.096;12.664;2022-11-23T03:23:47;101216.66;;;4.11;100.00
13732;BME280;6937;56.096;12.664;2022-11-23T03:26:13;101216.53;;;4.14;100.00
13732;BME280;6937;56.096;12.664;2022-11-23T03:28:38;101209.53;;;4.13;100.00
13732;BME280;6937;56.096;12.664;2022-11-23T03:31:04;101180.84;;;4.02;100.00
13732;BME280;6937;56.096;12.664;2022-11-23T03:33:29;101211.94;;;4.19;100.00
13732;BME280;6937;56.096;12.664;2022-11-23T03:35:55;101192.88;;;4.11;100.00
13732;BME280;6937;56.096;12.664;2022-11-23T03:38:21;101174.09;;;4.17;100.00
13732;BME280;6937;56.096;12.664;2022-11-23T03:40:46;101183.63;;;4.21;100.00
13732;BME280;6937;56.096;12.664;2022-11-23T03:43:13;101206.41;;;4.25;100.00
13732;BME280;6937;56.096;12.664;2022-11-23T03:45:38;101176.13;;;4.10;100.00
13732;BME280;6937;56.096;12.664;2022-11-23T03:48:04;101194.03;;;4.25;100.00
13732;BME280;6937;56.096;12.664;2022-11-23T03:50:30;101183.34;;;4.28;100.00
13732;BME280;6937;56.096;12.664;2022-11-23T03:52:55;101160.38;;;4.29;100.00
13732;BME280;6937;56.096;12.664;2022-11-23T03:55:21;101158.56;;;4.31;100.00
13732;BME280;6937;56.096;12.664;2022-11-23T03:57:47;101125.94;;;4.30;100.00
13732;BME280;6937;56.096;12.664;2022-11-23T04:00:13;101102.22;;;4.27;100.00
13732;BME280;6937;56.096;12.664;2022-11-23T04:02:39;101074.00;;;4.28;100.00
13732;BME280;6937;56.096;12.664;2022-11-23T04:05:05;101058.22;;;4.26;100.00
13732;BME280;6937;56.096;12.664;2022-11-23T04:07:31;101044.03;;;4.27;100.00
13732;BME280;6937;56.096;12.664;2022-11-23T04:09:56;101040.47;;;4.28;100.00
13732;BME280;6937;56.096;12.664;2022-11-23T04:12:22;101037.81;;;4.28;100.00
13732;BME280;6937;56.096;12.664;2022-11-23T04:14:48;101036.00;;;4.30;100.00
13732;BME280;6937;56.096;12.664;2022-11-23T04:17:13;101009.59;;;4.29;100.00
13732;BME280;6937;56.096;12.664;2022-11-23T04:19:39;100969.69;;;4.13;100.00
13732;BME280;6937;56.096;12.664;2022-11-23T04:22:04;101011.56;;;4.24;100.00
13732;BME280;6937;56.096;12.664;2022-11-23T04:24:29;101009.41;;;4.33;100.00
13732;BME280;6937;56.096;12.664;2022-11-23T04:26:55;100996.16;;;4.33;100.00
13732;BME280;6937;56.096;12.664;2022-11-23T04:29:20;100988.09;;;4.36;100.00
13732;BME280;6937;56.096;12.664;2022-11-23T04:31:45;100974.09;;;4.34;100.00
13732;BME280;6937;56.096;12.664;2022-11-23T04:34:11;100953.75;;;4.35;100.00
13732;BME280;6937;56.096;12.664;2022-11-23T04:36:36;100961.63;;;4.36;100.00
13732;BME280;6937;56.096;12.664;2022-11-23T04:39:02;100936.09;;;4.35;100.00
13732;BME280;6937;56.096;12.664;2022-11-23T04:41:28;100940.59;;;4.33;100.00
13732;BME280;6937;56.096;12.664;2022-11-23T04:43:54;100956.28;;;4.38;100.00
13732;BME280;6937;56.096;12.664;2022-11-23T04:46:19;100955.44;;;4.37;100.00
13732;BME280;6937;56.096;12.664;2022-11-23T04:48:45;101010.56;;;4.47;100.00
13732;BME280;6937;56.096;12.664;2022-11-23T04:51:10;100980.09;;;4.38;100.00
13732;BME280;6937;56.096;12.664;2022-11-23T04:53:35;100993.72;;;4.49;100.00
13732;BME280;6937;56.096;12.664;2022-11-23T04:56:01;100939.34;;;4.42;100.00
13732;BME280;6937;56.096;12.664;2022-11-23T04:58:26;100944.16;;;4.53;100.00
13732;BME280;6937;56.096;12.664;2022-11-23T05:00:52;100923.91;;;4.52;100.00
13732;BME280;6937;56.096;12.664;2022-11-23T05:03:17;100898.31;;;4.52;100.00
13732;BME280;6937;56.096;12.664;2022-11-23T05:05:42;100888.44;;;4.56;100.00
13732;BME280;6937;56.096;12.664;2022-11-23T05:08:08;100874.28;;;4.57;100.00
13732;BME280;6937;56.096;12.664;2022-11-23T05:10:34;100839.88;;;4.57;100.00
13732;BME280;6937;56.096;12.664;2022-11-23T05:13:00;100801.41;;;4.50;100.00
13732;BME280;6937;56.096;12.664;2022-11-23T05:15:25;100787.88;;;4.56;100.00
13732;BME280;6937;56.096;12.664;2022-11-23T05:17:51;100772.75;;;4.58;100.00
13732;BME280;6937;56.096;12.664;2022-11-23T05:20:17;100718.78;;;4.43;100.00
13732;BME280;6937;56.096;12.664;2022-11-23T05:22:42;100701.22;;;4.42;100.00
13732;BME280;6937;56.096;12.664;2022-11-23T05:25:08;100692.66;;;4.54;100.00
13732;BME280;6937;56.096;12.664;2022-11-23T05:27:33;100695.41;;;4.53;100.00
13732;BME280;6937;56.096;12.664;2022-11-23T05:30:00;100682.94;;;4.55;100.00
13732;BME280;6937;56.096;12.664;2022-11-23T05:32:26;100668.94;;;4.53;100.00
13732;BME280;6937;56.096;12.664;2022-11-23T05:34:51;100659.91;;;4.57;100.00
13732;BME280;6937;56.096;12.664;2022-11-23T05:37:16;100622.81;;;4.39;100.00
13732;BME280;6937;56.096;12.664;2022-11-23T05:39:42;100639.66;;;4.56;100.00
13732;BME280;6937;56.096;12.664;2022-11-23T05:42:07;100628.28;;;4.54;100.00
13732;BME280;6937;56.096;12.664;2022-11-23T05:44:33;100628.94;;;4.59;100.00
13732;BME280;6937;56.096;12.664;2022-11-23T05:46:59;100604.34;;;4.57;100.00
13732;BME280;6937;56.096;12.664;2022-11-23T05:49:24;100607.00;;;4.57;100.00
13732;BME280;6937;56.096;12.664;2022-11-23T05:51:50;100592.75;;;4.59;100.00
13732;BME280;6937;56.096;12.664;2022-11-23T05:54:15;100584.03;;;4.57;100.00
13732;BME280;6937;56.096;12.664;2022-11-23T05:56:41;100588.31;;;4.60;100.00
13732;BME280;6937;56.096;12.664;2022-11-23T05:59:06;100579.44;;;4.61;100.00
13732;BME280;6937;56.096;12.664;2022-11-23T06:01:32;100570.53;;;4.62;100.00
13732;BME280;6937;56.096;12.664;2022-11-23T06:03:57;100552.97;;;4.61;100.00
13732;BME280;6937;56.096;12.664;2022-11-23T06:06:23;100548.66;;;4.58;100.00
13732;BME280;6937;56.096;12.664;2022-11-23T06:08:48;100565.34;;;4.60;100.00
13732;BME280;6937;56.096;12.664;2022-11-23T06:11:13;100561.59;;;4.64;100.00
13732;BME280;6937;56.096;12.664;2022-11-23T06:13:39;100551.88;;;4.65;100.00
13732;BME280;6937;56.096;12.664;2022-11-23T06:16:04;100561.50;;;4.66;100.00
13732;BME280;6937;56.096;12.664;2022-11-23T06:18:30;100576.63;;;4.64;100.00
13732;BME280;6937;56.096;12.664;2022-11-23T06:21:00;100572.78;;;4.69;100.00
13732;BME280;6937;56.096;12.664;2022-11-23T06:23:26;100565.66;;;4.71;100.00
13732;BME280;6937;56.096;12.664;2022-11-23T06:25:52;100560.41;;;4.70;100.00
13732;BME280;6937;56.096;12.664;2022-11-23T06:28:18;100526.75;;;4.56;100.00
13732;BME280;6937;56.096;12.664;2022-11-23T06:30:43;100540.97;;;4.71;100.00
13732;BME280;6937;56.096;12.664;2022-11-23T06:33:08;100538.31;;;4.71;100.00
13732;BME280;6937;56.096;12.664;2022-11-23T06:35:34;100524.28;;;4.69;100.00
13732;BME280;6937;56.096;12.664;2022-11-23T06:37:59;100522.50;;;4.69;100.00
13732;BME280;6937;56.096;12.664;2022-11-23T06:40:25;100522.84;;;4.63;100.00
13732;BME280;6937;56.096;12.664;2022-11-23T06:42:50;100529.28;;;4.75;100.00
13732;BME280;6937;56.096;12.664;2022-11-23T06:45:17;100532.78;;;4.75;100.00
13732;BME280;6937;56.096;12.664;2022-11-23T06:47:43;100545.00;;;4.78;100.00
13732;BME280;6937;56.096;12.664;2022-11-23T06:50:08;100545.75;;;4.80;100.00
13732;BME280;6937;56.096;12.664;2022-11-23T06:52:34;100543.06;;;4.81;100.00
13732;BME280;6937;56.096;12.664;2022-11-23T06:54:59;100539.63;;;4.79;100.00
13732;BME280;6937;56.096;12.664;2022-11-23T06:57:24;100535.97;;;4.82;100.00
13732;BME280;6937;56.096;12.664;2022-11-23T06:59:50;100516.28;;;4.70;100.00
13732;BME280;6937;56.096;12.664;2022-11-23T07:02:15;100529.97;;;4.78;100.00
13732;BME280;6937;56.096;12.664;2022-11-23T07:04:40;100551.78;;;4.83;100.00
13732;BME280;6937;56.096;12.664;2022-11-23T07:07:07;100557.84;;;4.85;100.00
13732;BME280;6937;56.096;12.664;2022-11-23T07:09:32;100559.78;;;4.82;100.00
13732;BME280;6937;56.096;12.664;2022-11-23T07:11:58;100556.34;;;4.80;100.00
13732;BME280;6937;56.096;12.664;2022-11-23T07:14:23;100540.47;;;4.80;100.00
13732;BME280;6937;56.096;12.664;2022-11-23T07:16:48;100563.75;;;4.91;100.00
13732;BME280;6937;56.096;12.664;2022-11-23T07:19:14;100570.63;;;4.95;100.00
13732;BME280;6937;56.096;12.664;2022-11-23T07:21:39;100535.09;;;4.81;100.00
13732;BME280;6937;56.096;12.664;2022-11-23T07:24:05;100551.13;;;4.96;100.00
13732;BME280;6937;56.096;12.664;2022-11-23T07:26:30;100539.25;;;4.87;100.00
13732;BME280;6937;56.096;12.664;2022-11-23T07:28:56;100533.94;;;4.87;100.00
13732;BME280;6937;56.096;12.664;2022-11-23T07:31:21;100562.41;;;4.99;100.00
13732;BME280;6937;56.096;12.664;2022-11-23T07:33:46;100560.56;;;5.01;100.00
13732;BME280;6937;56.096;12.664;2022-11-23T07:36:12;100536.09;;;4.96;100.00
13732;BME280;6937;56.096;12.664;2022-11-23T07:38:38;100555.09;;;5.04;100.00
13732;BME280;6937;56.096;12.664;2022-11-23T07:41:03;100534.38;;;4.95;100.00
13732;BME280;6937;56.096;12.664;2022-11-23T07:43:29;100543.56;;;5.05;100.00
13732;BME280;6937;56.096;12.664;2022-11-23T07:45:55;100551.34;;;5.08;100.00
13732;BME280;6937;56.096;12.664;2022-11-23T07:48:22;100529.69;;;5.00;100.00
13732;BME280;6937;56.096;12.664;2022-11-23T07:50:50;100556.41;;;5.13;100.00
13732;BME280;6937;56.096;12.664;2022-11-23T07:53:15;100548.34;;;5.14;100.00
13732;BME280;6937;56.096;12.664;2022-11-23T07:55:41;100528.13;;;5.13;100.00
13732;BME280;6937;56.096;12.664;2022-11-23T07:58:06;100530.78;;;5.13;100.00
13732;BME280;6937;56.096;12.664;2022-11-23T08:00:31;100531.59;;;5.14;100.00
13732;BME280;6937;56.096;12.664;2022-11-23T08:02:57;100509.31;;;5.18;100.00
13732;BME280;6937;56.096;12.664;2022-11-23T08:05:23;100486.22;;;5.04;100.00
13732;BME280;6937;56.096;12.664;2022-11-23T08:07:48;100498.03;;;5.14;100.00
13732;BME280;6937;56.096;12.664;2022-11-23T08:10:14;100495.22;;;5.17;100.00
13732;BME280;6937;56.096;12.664;2022-11-23T08:12:39;100501.97;;;5.23;100.00
13732;BME280;6937;56.096;12.664;2022-11-23T08:15:06;100489.59;;;5.23;100.00
13732;BME280;6937;56.096;12.664;2022-11-23T08:17:32;100473.00;;;5.20;100.00
13732;BME280;6937;56.096;12.664;2022-11-23T08:19:57;100471.22;;;5.20;100.00
13732;BME280;6937;56.096;12.664;2022-11-23T08:22:22;100463.97;;;5.24;100.00
13732;BME280;6937;56.096;12.664;2022-11-23T08:24:48;100442.41;;;5.14;100.00
13732;BME280;6937;56.096;12.664;2022-11-23T08:27:13;100452.69;;;5.20;100.00
13732;BME280;6937;56.096;12.664;2022-11-23T08:29:39;100417.44;;;5.18;100.00
13732;BME280;6937;56.096;12.664;2022-11-23T08:32:04;100413.78;;;5.05;100.00
13732;BME280;6937;56.096;12.664;2022-11-23T08:34:30;100463.75;;;5.11;100.00
13732;BME280;6937;56.096;12.664;2022-11-23T08:36:55;100485.03;;;5.25;100.00
13732;BME280;6937;56.096;12.664;2022-11-23T08:39:21;100463.06;;;5.08;100.00
13732;BME280;6937;56.096;12.664;2022-11-23T08:41:46;100502.84;;;5.23;100.00
13732;BME280;6937;56.096;12.664;2022-11-23T08:44:12;100519.22;;;5.14;100.00
13732;BME280;6937;56.096;12.664;2022-11-23T08:46:37;100550.09;;;5.31;100.00
13732;BME280;6937;56.096;12.664;2022-11-23T08:49:03;100567.56;;;5.35;100.00
13732;BME280;6937;56.096;12.664;2022-11-23T08:51:29;100591.31;;;5.36;100.00
13732;BME280;6937;56.096;12.664;2022-11-23T08:53:55;100551.56;;;5.21;100.00
13732;BME280;6937;56.096;12.664;2022-11-23T08:56:20;100587.81;;;5.36;100.00
13732;BME280;6937;56.096;12.664;2022-11-23T08:58:46;100601.91;;;5.36;100.00
13732;BME280;6937;56.096;12.664;2022-11-23T09:01:13;100609.78;;;5.38;100.00
13732;BME280;6937;56.096;12.664;2022-11-23T09:03:39;100635.09;;;5.44;100.00
13732;BME280;6937;56.096;12.664;2022-11-23T09:06:04;100627.13;;;5.44;100.00
13732;BME280;6937;56.096;12.664;2022-11-23T09:08:30;100630.66;;;5.44;100.00
13732;BME280;6937;56.096;12.664;2022-11-23T09:11:03;100609.72;;;5.40;100.00
13732;BME280;6937;56.096;12.664;2022-11-23T09:13:28;100597.63;;;5.34;100.00
13732;BME280;6937;56.096;12.664;2022-11-23T09:15:57;100600.28;;;5.34;100.00
13732;BME280;6937;56.096;12.664;2022-11-23T09:18:24;100588.66;;;5.36;100.00
13732;BME280;6937;56.096;12.664;2022-11-23T09:20:50;100605.63;;;5.50;100.00
13732;BME280;6937;56.096;12.664;2022-11-23T09:23:15;100611.63;;;5.53;100.00
13732;BME280;6937;56.096;12.664;2022-11-23T09:25:40;100613.16;;;5.57;100.00
13732;BME280;6937;56.096;12.664;2022-11-23T09:28:07;100603.59;;;5.55;100.00
13732;BME280;6937;56.096;12.664;2022-11-23T09:30:33;100607.69;;;5.60;100.00
13732;BME280;6937;56.096;12.664;2022-11-23T09:32:58;100600.53;;;5.62;100.00
13732;BME280;6937;56.096;12.664;2022-11-23T09:35:24;100593.56;;;5.60;100.00
13732;BME280;6937;56.096;12.664;2022-11-23T09:37:56;100578.47;;;5.62;100.00
13732;BME280;6937;56.096;12.664;2022-11-23T09:40:23;100574.59;;;5.67;100.00
13732;BME280;6937;56.096;12.664;2022-11-23T09:43:01;100564.84;;;5.68;100.00
13732;BME280;6937;56.096;12.664;2022-11-23T09:45:47;100563.81;;;5.70;100.00
13732;BME280;6937;56.096;12.664;2022-11-23T09:51:06;100552.28;;;5.71;100.00
13732;BME280;6937;56.096;12.664;2022-11-23T09:56:16;100547.47;;;5.78;100.00
13732;BME280;6937;56.096;12.664;2022-11-23T09:58:43;100544.56;;;5.82;100.00
13732;BME280;6937;56.096;12.664;2022-11-23T10:01:13;100517.38;;;5.79;100.00
13732;BME280;6937;56.096;12.664;2022-11-23T10:03:41;100534.59;;;5.88;100.00
13732;BME280;6937;56.096;12.664;2022-11-23T10:11:44;100478.72;;;5.91;100.00
13732;BME280;6937;56.096;12.664;2022-11-23T10:14:41;100448.63;;;5.92;100.00
13732;BME280;6937;56.096;12.664;2022-11-23T10:17:21;100420.66;;;5.86;100.00
13732;BME280;6937;56.096;12.664;2022-11-23T10:20:25;100405.41;;;5.90;100.00
13732;BME280;6937;56.096;12.664;2022-11-23T10:22:58;100373.16;;;5.81;100.00
13732;BME280;6937;56.096;12.664;2022-11-23T10:25:24;100378.34;;;5.99;100.00
13732;BME280;6937;56.096;12.664;2022-11-23T10:27:55;100352.28;;;5.91;100.00
13732;BME280;6937;56.096;12.664;2022-11-23T10:30:21;100359.69;;;6.00;100.00
13732;BME280;6937;56.096;12.664;2022-11-23T10:32:54;100351.25;;;6.08;100.00
13732;BME280;6937;56.096;12.664;2022-11-23T10:35:32;100323.13;;;6.05;100.00
13732;BME280;6937;56.096;12.664;2022-11-23T10:38:17;100321.81;;;6.12;100.00
13732;BME280;6937;56.096;12.664;2022-11-23T10:43:22;100296.41;;;6.08;100.00
13732;BME280;6937;56.096;12.664;2022-11-23T10:45:50;100297.47;;;6.20;100.00
13732;BME280;6937;56.096;12.664;2022-11-23T10:48:33;100264.69;;;6.21;100.00
13732;BME280;6937;56.096;12.664;2022-11-23T10:51:26;100244.31;;;6.21;100.00
13732;BME280;6937;56.096;12.664;2022-11-23T10:53:57;100221.38;;;6.20;100.00
13732;BME280;6937;56.096;12.664;2022-11-23T10:56:24;100223.09;;;6.21;100.00
13732;BME280;6937;56.096;12.664;2022-11-23T10:58:49;100185.78;;;6.10;100.00
13732;BME280;6937;56.096;12.664;2022-11-23T11:01:22;100191.13;;;6.23;100.00
13732;BME280;6937;56.096;12.664;2022-11-23T11:03:50;100208.28;;;6.31;100.00
13732;BME280;6937;56.096;12.664;2022-11-23T11:06:28;100237.66;;;6.43;100.00
13732;BME280;6937;56.096;12.664;2022-11-23T11:08:56;100237.34;;;6.47;100.00
13732;BME280;6937;56.096;12.664;2022-11-23T11:11:37;100192.31;;;6.46;100.00
13732;BME280;6937;56.096;12.664;2022-11-23T11:16:47;100175.91;;;6.53;100.00
13732;BME280;6937;56.096;12.664;2022-11-23T11:19:34;100145.50;;;6.45;100.00
13732;BME280;6937;56.096;12.664;2022-11-23T11:22:01;100167.56;;;6.59;100.00
13732;BME280;6937;56.096;12.664;2022-11-23T11:24:42;100149.50;;;6.64;100.00
13732;BME280;6937;56.096;12.664;2022-11-23T11:27:14;100154.50;;;6.69;100.00
13732;BME280;6937;56.096;12.664;2022-11-23T11:32:46;100086.84;;;6.62;100.00
13732;BME280;6937;56.096;12.664;2022-11-23T11:35:22;100061.44;;;6.58;100.00
13732;BME280;6937;56.096;12.664;2022-11-23T11:37:50;100053.56;;;6.56;100.00
13732;BME280;6937;56.096;12.664;2022-11-23T11:40:29;100052.31;;;6.62;100.00
13732;BME280;6937;56.096;12.664;2022-11-23T11:45:39;100037.97;;;6.64;100.00
13732;BME280;6937;56.096;12.664;2022-11-23T11:50:40;100055.84;;;6.75;100.00
13732;BME280;6937;56.096;12.664;2022-11-23T11:53:14;100023.25;;;6.73;100.00
13732;BME280;6937;56.096;12.664;2022-11-23T11:55:45;100016.22;;;6.72;100.00
13732;BME280;6937;56.096;12.664;2022-11-23T11:58:15;100030.47;;;6.71;100.00
13732;BME280;6937;56.096;12.664;2022-11-23T12:00:41;99993.72;;;6.65;100.00
13732;BME280;6937;56.096;12.664;2022-11-23T12:03:35;99971.53;;;6.66;100.00
13732;BME280;6937;56.096;12.664;2022-11-23T12:06:10;99960.56;;;6.58;100.00
13732;BME280;6937;56.096;12.664;2022-11-23T12:08:58;99964.72;;;6.62;100.00
13732;BME280;6937;56.096;12.664;2022-11-23T12:11:24;99964.72;;;6.62;100.00
13732;BME280;6937;56.096;12.664;2022-11-23T12:13:50;99955.03;;;6.61;100.00
13732;BME280;6937;56.096;12.664;2022-11-23T12:19:33;99961.22;;;6.61;100.00
13732;BME280;6937;56.096;12.664;2022-11-23T12:22:17;99957.69;;;6.61;100.00
13732;BME280;6937;56.096;12.664;2022-11-23T12:25:42;99948.78;;;6.62;100.00
13732;BME280;6937;56.096;12.664;2022-11-23T12:28:19;99949.53;;;6.64;100.00
13732;BME280;6937;56.096;12.664;2022-11-23T12:34:13;99928.19;;;6.53;100.00
13732;BME280;6937;56.096;12.664;2022-11-23T12:39:45;99981.50;;;6.75;100.00
13732;BME280;6937;56.096;12.664;2022-11-23T12:42:38;99970.78;;;6.76;100.00
13732;BME280;6937;56.096;12.664;2022-11-23T12:50:39;99951.25;;;6.77;100.00
13732;BME280;6937;56.096;12.664;2022-11-23T12:56:22;99949.44;;;6.78;100.00
13732;BME280;6937;56.096;12.664;2022-11-23T12:58:53;99961.09;;;6.88;100.00
13732;BME280;6937;56.096;12.664;2022-11-23T13:15:56;99993.09;;;7.12;100.00
13732;BME280;6937;56.096;12.664;2022-11-23T13:18:44;100001.47;;;7.18;100.00
13732;BME280;6937;56.096;12.664;2022-11-23T13:21:42;100045.66;;;7.45;100.00
13732;BME280;6937;56.096;12.664;2022-11-23T13:24:35;100022.97;;;7.64;100.00
13732;BME280;6937;56.096;12.664;2022-11-23T13:42:56;99886.59;;;7.15;100.00
13732;BME280;6937;56.096;12.664;2022-11-23T13:45:34;99868.31;;;7.10;100.00
13732;BME280;6937;56.096;12.664;2022-11-23T13:50:58;99887.06;;;6.96;100.00
13732;BME280;6937;56.096;12.664;2022-11-23T13:53:34;99880.25;;;6.92;100.00
13732;BME280;6937;56.096;12.664;2022-11-23T13:56:30;99877.59;;;6.92;100.00
13732;BME280;6937;56.096;12.664;2022-11-23T13:59:24;99881.34;;;6.90;100.00
13732;BME280;6937;56.096;12.664;2022-11-23T14:04:36;99871.66;;;6.76;100.00
13732;BME280;6937;56.096;12.664;2022-11-23T14:07:25;99884.22;;;6.74;100.00
13732;BME280;6937;56.096;12.664;2022-11-23T14:23:45;99894.75;;;6.63;100.00
13732;BME280;6937;56.096;12.664;2022-11-23T14:26:24;99914.38;;;6.60;100.00
13732;BME280;6937;56.096;12.664;2022-11-23T14:29:16;99908.97;;;6.62;100.00
13732;BME280;6937;56.096;12.664;2022-11-23T14:34:54;99896.97;;;6.44;100.00